createdAt,value
2023-05-24T00:00:30.955Z,99350.03
2023-05-24T00:02:59.406Z,99350.13
2023-05-24T00:05:31.237Z,99347.59
2023-05-24T00:08:00.176Z,99349.31
2023-05-24T00:10:28.176Z,99336.72
2023-05-24T00:12:57.599Z,99343.41
2023-05-24T00:15:25.673Z,99331.66
2023-05-24T00:17:53.624Z,99339.28
2023-05-24T00:20:21.683Z,99339.31
2023-05-24T00:22:49.654Z,99336.09
2023-05-24T00:25:17.565Z,99328.56
2023-05-24T00:27:45.519Z,99333.72
2023-05-24T00:30:15.242Z,99327.91
2023-05-24T00:32:43.570Z,99326.34
2023-05-24T00:35:12.318Z,99326.38
2023-05-24T00:37:41.931Z,99333.91
2023-05-24T00:40:11.088Z,99335.47
2023-05-24T00:42:39.349Z,99337.09
2023-05-24T00:45:08.466Z,99332.78
2023-05-24T00:47:38.418Z,99337.00
2023-05-24T00:50:08.394Z,99347.09
2023-05-24T00:52:37.069Z,99343.69
2023-05-24T00:55:05.716Z,99343.66
2023-05-24T00:57:33.782Z,99345.34
2023-05-24T01:00:01.754Z,99344.53
2023-05-24T01:02:30.273Z,99350.47
2023-05-24T01:05:00.051Z,99352.19
2023-05-24T01:07:33.739Z,99345.44
2023-05-24T01:10:11.017Z,99346.34
2023-05-24T01:12:52.819Z,99349.72
2023-05-24T01:15:26.152Z,99353.03
2023-05-24T01:18:02.569Z,99350.47
2023-05-24T01:20:34.688Z,99351.41
2023-05-24T01:23:14.733Z,99350.47
2023-05-24T01:25:50.912Z,99358.03
2023-05-24T01:28:20.747Z,99356.31
2023-05-24T01:30:49.144Z,99360.53
2023-05-24T01:33:17.403Z,99367.28
2023-05-24T01:35:45.335Z,99364.75
2023-05-24T01:38:15.807Z,99362.22
2023-05-24T01:40:44.754Z,99361.41
2023-05-24T01:43:19.447Z,99363.13
2023-05-24T01:46:00.334Z,99360.59
2023-05-24T01:48:35.636Z,99359.78
2023-05-24T01:51:08.383Z,99360.66
2023-05-24T01:53:42.322Z,99357.34
2023-05-24T01:56:12.798Z,99353.22
2023-05-24T01:58:43.176Z,99354.16
2023-05-24T02:01:13.708Z,99349.09
2023-05-24T02:03:41.947Z,99360.75
2023-05-24T02:06:10.769Z,99356.44
2023-05-24T02:08:41.087Z,99357.22
2023-05-24T02:11:09.160Z,99353.78
2023-05-24T02:13:37.076Z,99360.56
2023-05-24T02:16:05.581Z,99363.09
2023-05-24T02:18:35.052Z,99371.50
2023-05-24T02:21:03.189Z,99368.97
2023-05-24T02:23:31.095Z,99371.50
2023-05-24T02:26:01.464Z,99370.69
2023-05-24T02:28:32.178Z,99374.09
2023-05-24T02:31:00.268Z,99360.69
2023-05-24T02:33:29.795Z,99359.88
2023-05-24T02:35:59.208Z,99365.78
2023-05-24T02:38:27.564Z,99362.47
2023-05-24T02:40:55.592Z,99358.47
2023-05-24T02:43:23.466Z,99355.03
2023-05-24T02:45:51.370Z,99371.88
2023-05-24T02:48:19.291Z,99372.81
2023-05-24T02:50:47.447Z,99373.75
2023-05-24T02:53:16.748Z,99365.28
2023-05-24T02:55:46.725Z,99366.91
2023-05-24T02:58:17.664Z,99365.16
2023-05-24T03:00:48.693Z,99370.97
2023-05-24T03:03:17.206Z,99379.44
2023-05-24T03:05:46.408Z,99373.50
2023-05-24T03:08:16.786Z,99363.31
2023-05-24T03:10:44.927Z,99374.25
2023-05-24T03:13:14.299Z,99380.28
2023-05-24T03:15:43.953Z,99377.03
2023-05-24T03:18:11.824Z,99381.28
2023-05-24T03:20:41.714Z,99385.56
2023-05-24T03:23:10.658Z,99384.75
2023-05-24T03:25:39.970Z,99389.88
2023-05-24T03:28:08.461Z,99384.84
2023-05-24T03:30:36.402Z,99400.06
2023-05-24T03:33:04.654Z,99401.78
2023-05-24T03:35:33.460Z,99391.69
2023-05-24T03:38:01.474Z,99390.81
2023-05-24T03:40:33.619Z,99394.13
2023-05-24T03:43:19.124Z,99387.44
2023-05-24T03:45:51.290Z,99400.09
2023-05-24T03:48:20.885Z,99392.56
2023-05-24T03:50:49.181Z,99402.69
2023-05-24T03:53:20.032Z,99396.00
2023-05-24T03:55:48.994Z,99398.53
2023-05-24T03:58:16.949Z,99390.97
2023-05-24T04:00:48.095Z,99399.38
2023-05-24T04:03:16.087Z,99398.53
2023-05-24T04:05:44.093Z,99393.47
2023-05-24T04:08:12.404Z,99403.59
2023-05-24T04:10:40.687Z,99403.59
2023-05-24T04:13:12.119Z,99406.16
2023-05-24T04:15:40.071Z,99413.69
2023-05-24T04:18:09.713Z,99407.81
2023-05-24T04:20:38.491Z,99413.69
2023-05-24T04:23:06.525Z,99420.38
2023-05-24T04:25:35.128Z,99430.47
2023-05-24T04:28:03.869Z,99427.97
2023-05-24T04:30:33.502Z,99424.59
2023-05-24T04:33:01.843Z,99426.25
2023-05-24T04:35:31.618Z,99430.44
2023-05-24T04:37:59.987Z,99422.00
2023-05-24T04:40:27.883Z,99420.31
2023-05-24T04:42:56.102Z,99422.84
2023-05-24T04:45:24.047Z,99420.31
2023-05-24T04:47:51.993Z,99423.66
2023-05-24T04:50:19.901Z,99421.97
2023-05-24T04:52:49.225Z,99426.97
2023-05-24T04:55:17.168Z,99424.44
2023-05-24T04:57:45.037Z,99421.06
2023-05-24T05:00:14.277Z,99431.91
2023-05-24T05:02:42.278Z,99436.88
2023-05-24T05:05:10.826Z,99442.72
2023-05-24T05:07:38.751Z,99441.00
2023-05-24T05:10:09.614Z,99441.88
2023-05-24T05:12:37.625Z,99446.13
2023-05-24T05:15:06.498Z,99438.59
2023-05-24T05:17:34.975Z,99446.13
2023-05-24T05:20:03.032Z,99438.50
2023-05-24T05:22:31.379Z,99438.41
2023-05-24T05:24:59.547Z,99441.69
2023-05-24T05:27:28.816Z,99431.56
2023-05-24T05:29:56.831Z,99462.59
2023-05-24T05:32:25.227Z,99466.75
2023-05-24T05:34:53.787Z,99459.13
2023-05-24T05:37:21.650Z,99464.13
2023-05-24T05:39:49.625Z,99461.59
2023-05-24T05:42:17.653Z,99458.22
2023-05-24T05:44:47.011Z,99453.97
2023-05-24T05:47:14.981Z,99458.22
2023-05-24T05:49:42.839Z,99464.97
2023-05-24T05:52:12.218Z,99460.72
2023-05-24T05:54:40.225Z,99470.00
2023-05-24T05:57:10.606Z,99459.88
2023-05-24T05:59:38.919Z,99464.94
2023-05-24T06:02:08.613Z,99469.97
2023-05-24T06:04:36.647Z,99478.31
2023-05-24T06:07:04.608Z,99466.50
2023-05-24T06:09:32.711Z,99484.13
2023-05-24T06:12:00.588Z,99484.91
2023-05-24T06:14:28.832Z,99481.47
2023-05-24T06:16:58.055Z,99486.69
2023-05-24T06:19:29.375Z,99488.25
2023-05-24T06:21:57.554Z,99490.56
2023-05-24T06:24:25.973Z,99493.69
2023-05-24T06:26:54.145Z,99501.16
2023-05-24T06:29:22.630Z,99494.53
2023-05-24T06:31:51.095Z,99496.25
2023-05-24T06:34:21.580Z,99502.13
2023-05-24T06:36:51.606Z,99509.78
2023-05-24T06:39:19.979Z,99511.50
2023-05-24T06:41:51.147Z,99504.03
2023-05-24T06:44:31.038Z,99513.34
2023-05-24T06:46:59.346Z,99509.16
2023-05-24T06:49:27.855Z,99506.63
2023-05-24T06:51:57.161Z,99513.25
2023-05-24T06:54:25.657Z,99505.63
2023-05-24T06:56:53.557Z,99509.09
2023-05-24T06:59:21.434Z,99508.97
2023-05-24T07:01:51.765Z,99500.44
2023-05-24T07:04:19.792Z,99517.91
2023-05-24T07:06:47.701Z,99511.91
2023-05-24T07:09:16.931Z,99515.25
2023-05-24T07:11:45.062Z,99528.66
2023-05-24T07:14:13.086Z,99522.53
2023-05-24T07:16:41.059Z,99524.09
2023-05-24T07:19:09.489Z,99522.22
2023-05-24T07:21:37.428Z,99523.00
2023-05-24T07:24:05.642Z,99528.28
2023-05-24T07:26:35.066Z,99529.00
2023-05-24T07:29:02.914Z,99538.28
2023-05-24T07:31:32.546Z,99538.53
2023-05-24T07:34:00.509Z,99522.78
2023-05-24T07:36:34.830Z,99531.28
2023-05-24T07:39:05.262Z,99544.72
2023-05-24T07:41:34.534Z,99540.66
2023-05-24T07:44:02.434Z,99548.44
2023-05-24T07:46:30.380Z,99543.47
2023-05-24T07:48:58.327Z,99542.59
2023-05-24T07:51:26.634Z,99544.38
2023-05-24T07:53:54.596Z,99547.06
2023-05-24T07:56:22.519Z,99545.56
2023-05-24T07:58:51.849Z,99543.19
2023-05-24T08:01:20.054Z,99549.19
2023-05-24T08:03:48.521Z,99545.66
2023-05-24T08:06:16.671Z,99543.84
2023-05-24T08:08:45.871Z,99533.66
2023-05-24T08:11:13.760Z,99552.94
2023-05-24T08:13:41.665Z,99548.81
2023-05-24T08:16:11.120Z,99542.97
2023-05-24T08:18:39.082Z,99546.28
2023-05-24T08:21:08.021Z,99542.53
2023-05-24T08:23:36.387Z,99549.69
2023-05-24T08:26:04.544Z,99550.25
2023-05-24T08:28:32.912Z,99558.56
2023-05-24T08:31:00.815Z,99556.84
2023-05-24T08:33:30.110Z,99548.44
2023-05-24T08:35:57.994Z,99551.09
2023-05-24T08:38:25.871Z,99554.56
2023-05-24T08:40:53.860Z,99559.63
2023-05-24T08:43:22.582Z,99562.97
2023-05-24T08:45:51.271Z,99557.09
2023-05-24T08:48:20.265Z,99541.13
2023-05-24T08:50:50.184Z,99558.84
2023-05-24T08:53:19.399Z,99563.88
2023-05-24T08:55:47.487Z,99571.50
2023-05-24T08:58:15.685Z,99573.19
2023-05-24T09:00:43.599Z,99562.13
2023-05-24T09:03:12.411Z,99569.50
2023-05-24T09:05:42.480Z,99573.97
2023-05-24T09:08:13.473Z,99567.91
2023-05-24T09:10:54.001Z,99571.84
2023-05-24T09:13:24.316Z,99579.59
2023-05-24T09:15:52.407Z,99575.38
2023-05-24T09:18:21.055Z,99573.78
2023-05-24T09:20:49.177Z,99578.69
2023-05-24T09:23:18.987Z,99567.00
2023-05-24T09:25:47.866Z,99579.63
2023-05-24T09:28:17.802Z,99579.94
2023-05-24T09:30:46.537Z,99568.44
2023-05-24T09:33:14.468Z,99576.81
2023-05-24T09:35:44.257Z,99583.69
2023-05-24T09:38:19.708Z,99588.81
2023-05-24T09:40:47.848Z,99577.16
2023-05-24T09:43:15.763Z,99573.66
2023-05-24T09:45:46.937Z,99579.56
2023-05-24T09:48:16.589Z,99582.91
2023-05-24T09:50:47.582Z,99586.22
2023-05-24T09:53:19.874Z,99578.28
2023-05-24T09:55:48.869Z,99583.06
2023-05-24T09:58:18.266Z,99572.28
2023-05-24T10:00:47.231Z,99581.81
2023-05-24T10:03:15.678Z,99582.81
2023-05-24T10:05:45.850Z,99582.06
2023-05-24T10:08:14.310Z,99577.09
2023-05-24T10:10:44.434Z,99574.56
2023-05-24T10:13:15.696Z,99598.09
2023-05-24T10:15:44.045Z,99582.44
2023-05-24T10:18:13.860Z,99572.94
2023-05-24T10:20:43.223Z,99563.53
2023-05-24T10:23:15.307Z,99574.56
2023-05-24T10:25:56.487Z,99578.75
2023-05-24T10:28:26.121Z,99574.69
2023-05-24T10:31:04.280Z,99589.13
2023-05-24T10:33:36.146Z,99594.06
2023-05-24T10:36:07.189Z,99573.66
2023-05-24T10:38:39.667Z,99579.63
2023-05-24T10:41:09.357Z,99579.75
2023-05-24T10:43:37.980Z,99587.09
2023-05-24T10:46:09.206Z,99571.72
2023-05-24T10:48:41.129Z,99576.63
2023-05-24T10:51:32.836Z,99573.25
2023-05-24T10:54:14.044Z,99579.97
2023-05-24T10:56:45.680Z,99572.50
2023-05-24T10:59:47.074Z,99574.19
2023-05-24T11:02:16.550Z,99577.59
2023-05-24T11:04:49.098Z,99586.97
2023-05-24T11:07:19.654Z,99566.75
2023-05-24T11:09:53.211Z,99578.66
2023-05-24T11:12:22.684Z,99564.19
2023-05-24T11:14:52.547Z,99568.41
2023-05-24T11:17:22.869Z,99566.75
2023-05-24T11:19:52.904Z,99574.22
2023-05-24T11:22:22.649Z,99560.38
2023-05-24T11:24:51.729Z,99561.84
2023-05-24T11:27:19.619Z,99550.75
2023-05-24T11:29:59.123Z,99561.03
2023-05-24T11:32:27.619Z,99554.41
2023-05-24T11:34:56.235Z,99554.28
2023-05-24T11:37:35.160Z,99558.31
2023-05-24T11:40:13.160Z,99548.44
2023-05-24T11:42:41.157Z,99557.50
2023-05-24T11:45:11.845Z,99559.59
2023-05-24T11:47:41.660Z,99544.03
2023-05-24T11:50:10.453Z,99544.38
2023-05-24T11:52:40.177Z,99549.72
2023-05-24T11:55:08.873Z,99549.09
2023-05-24T11:57:40.075Z,99550.44
2023-05-24T12:00:16.972Z,99551.28
2023-05-24T12:02:45.677Z,99555.38
2023-05-24T12:05:14.381Z,99537.34
2023-05-24T12:07:45.102Z,99548.75
2023-05-24T12:10:14.046Z,99544.28
2023-05-24T12:12:46.269Z,99544.19
2023-05-24T12:15:18.496Z,99543.91
2023-05-24T12:17:50.207Z,99549.94
2023-05-24T12:20:20.354Z,99536.78
2023-05-24T12:22:53.033Z,99539.75
2023-05-24T12:25:21.913Z,99550.28
2023-05-24T12:27:55.752Z,99547.13
2023-05-24T12:30:26.355Z,99546.22
2023-05-24T12:32:54.879Z,99543.56
2023-05-24T12:35:23.152Z,99542.50
2023-05-24T12:37:51.681Z,99547.19
2023-05-24T12:40:21.947Z,99544.28
2023-05-24T12:42:53.336Z,99543.56
2023-05-24T12:45:25.767Z,99548.41
2023-05-24T12:47:55.849Z,99530.81
2023-05-24T12:50:25.807Z,99535.75
2023-05-24T12:52:54.333Z,99541.50
2023-05-24T12:55:25.191Z,99529.53
2023-05-24T12:57:54.500Z,99530.00
2023-05-24T13:00:24.303Z,99526.66
2023-05-24T13:02:54.769Z,99529.66
2023-05-24T13:05:24.723Z,99518.47
2023-05-24T13:07:53.625Z,99529.66
2023-05-24T13:10:21.551Z,99525.66
2023-05-24T13:12:49.607Z,99522.81
2023-05-24T13:15:19.426Z,99529.59
2023-05-24T13:17:47.792Z,99524.75
2023-05-24T13:20:16.035Z,99527.59
2023-05-24T13:22:45.334Z,99534.47
2023-05-24T13:25:13.294Z,99525.25
2023-05-24T13:27:41.314Z,99532.63
2023-05-24T13:30:10.366Z,99538.03
2023-05-24T13:32:41.036Z,99541.91
2023-05-24T13:35:09.965Z,99515.59
2023-05-24T13:37:38.079Z,99526.41
2023-05-24T13:40:09.067Z,99531.53
2023-05-24T13:42:37.075Z,99515.50
2023-05-24T13:45:06.038Z,99532.38
2023-05-24T13:47:39.843Z,99534.97
2023-05-24T13:50:09.208Z,99521.22
2023-05-24T13:52:37.864Z,99517.16
2023-05-24T13:55:08.964Z,99523.16
2023-05-24T13:57:50.499Z,99526.47
2023-05-24T14:00:20.515Z,99522.97
2023-05-24T14:02:48.904Z,99518.72
2023-05-24T14:05:27.599Z,99522.44
2023-05-24T14:07:57.465Z,99521.19
2023-05-24T14:10:26.987Z,99539.06
2023-05-24T14:13:12.768Z,99550.88
2023-05-24T14:15:44.766Z,99535.66
2023-05-24T14:18:12.885Z,99528.63
2023-05-24T14:20:40.935Z,99540.94
2023-05-24T14:23:10.034Z,99537.25
2023-05-24T14:25:41.345Z,99533.84
2023-05-24T14:28:09.604Z,99525.66
2023-05-24T14:30:38.561Z,99536.72
2023-05-24T14:33:08.197Z,99533.34
2023-05-24T14:35:39.639Z,99537.50
2023-05-24T14:38:10.774Z,99531.59
2023-05-24T14:40:40.922Z,99533.88
2023-05-24T14:43:10.580Z,99530.16
2023-05-24T14:45:41.360Z,99525.72
2023-05-24T14:48:11.532Z,99530.84
2023-05-24T14:50:40.821Z,99530.75
2023-05-24T14:53:11.854Z,99526.38
2023-05-24T14:55:43.062Z,99525.56
2023-05-24T14:58:12.620Z,99525.50
2023-05-24T15:00:41.672Z,99540.41
2023-05-24T15:03:11.434Z,99526.00
2023-05-24T15:05:39.956Z,99549.22
2023-05-24T15:08:08.096Z,99536.19
2023-05-24T15:10:36.121Z,99532.34
2023-05-24T15:13:05.614Z,99524.09
2023-05-24T15:15:33.474Z,99528.31
2023-05-24T15:18:01.448Z,99527.16
2023-05-24T15:20:29.682Z,99555.47
2023-05-24T15:22:57.599Z,99536.00
2023-05-24T15:25:25.554Z,99535.53
2023-05-24T15:27:53.395Z,99526.16
2023-05-24T15:30:24.048Z,99520.38
2023-05-24T15:32:52.053Z,99531.69
2023-05-24T15:35:20.064Z,99526.81
2023-05-24T15:37:48.050Z,99526.47
2023-05-24T15:40:16.250Z,99530.41
2023-05-24T15:42:45.108Z,99523.78
2023-05-24T15:45:13.263Z,99541.72
2023-05-24T15:47:42.622Z,99544.13
2023-05-24T15:50:11.426Z,99526.59
2023-05-24T15:52:39.445Z,99540.28
2023-05-24T15:55:08.628Z,99537.44
2023-05-24T15:57:36.509Z,99549.81
2023-05-24T16:00:05.355Z,99540.63
2023-05-24T16:02:40.157Z,99545.81
2023-05-24T16:05:10.304Z,99527.03
2023-05-24T16:07:38.255Z,99533.84
2023-05-24T16:10:07.100Z,99546.19
2023-05-24T16:12:35.215Z,99525.44
2023-05-24T16:15:03.167Z,99538.72
2023-05-24T16:17:32.884Z,99538.88
2023-05-24T16:20:01.341Z,99560.75
2023-05-24T16:22:30.663Z,99554.06
2023-05-24T16:24:58.500Z,99544.06
2023-05-24T16:27:26.386Z,99544.97
2023-05-24T16:29:54.318Z,99546.75
2023-05-24T16:32:22.350Z,99549.44
2023-05-24T16:34:56.654Z,99562.31
2023-05-24T16:37:24.881Z,99564.19
2023-05-24T16:39:54.082Z,99543.94
2023-05-24T16:42:22.020Z,99567.06
2023-05-24T16:44:49.953Z,99571.94
2023-05-24T16:47:17.890Z,99564.44
2023-05-24T16:49:45.791Z,99568.66
2023-05-24T16:52:13.672Z,99570.94
2023-05-24T16:54:41.560Z,99576.72
2023-05-24T16:57:10.880Z,99560.13
2023-05-24T16:59:38.841Z,99567.69
2023-05-24T17:02:07.042Z,99554.63
2023-05-24T17:04:35.438Z,99562.63
2023-05-24T17:07:03.311Z,99559.72
2023-05-24T17:09:31.142Z,99568.03
2023-05-24T17:11:59.169Z,99561.47
2023-05-24T17:14:28.434Z,99574.19
2023-05-24T17:16:56.331Z,99575.03
2023-05-24T17:19:25.245Z,99581.88
2023-05-24T17:21:53.143Z,99582.00
2023-05-24T17:24:22.375Z,99593.88
2023-05-24T17:26:50.288Z,99592.50
2023-05-24T17:29:18.163Z,99591.00
2023-05-24T17:31:47.602Z,99596.34
2023-05-24T17:34:16.901Z,99603.50
2023-05-24T17:36:45.000Z,99601.41
2023-05-24T17:39:13.011Z,99608.75
2023-05-24T17:41:41.077Z,99614.34
2023-05-24T17:44:09.197Z,99619.03
2023-05-24T17:46:39.072Z,99637.97
2023-05-24T17:49:12.577Z,99635.75
2023-05-24T17:51:40.688Z,99639.50
2023-05-24T17:54:08.523Z,99642.28
2023-05-24T17:56:36.411Z,99630.59
2023-05-24T17:59:04.335Z,99642.53
2023-05-24T18:01:32.402Z,99641.78
2023-05-24T18:04:01.046Z,99639.50
2023-05-24T18:06:30.901Z,99651.50
2023-05-24T18:08:58.914Z,99644.81
2023-05-24T18:11:27.750Z,99657.56
2023-05-24T18:13:55.838Z,99660.19
2023-05-24T18:16:24.079Z,99654.34
2023-05-24T18:18:52.079Z,99651.09
2023-05-24T18:21:20.042Z,99657.06
2023-05-24T18:23:49.411Z,99669.78
2023-05-24T18:26:17.776Z,99673.25
2023-05-24T18:28:45.852Z,99664.84
2023-05-24T18:31:14.838Z,99670.88
2023-05-24T18:33:43.319Z,99674.28
2023-05-24T18:36:12.497Z,99670.91
2023-05-24T18:38:40.873Z,99681.06
2023-05-24T18:41:11.920Z,99689.56
2023-05-24T18:43:40.196Z,99687.88
2023-05-24T18:46:09.112Z,99690.44
2023-05-24T18:48:37.083Z,99691.31
2023-05-24T18:51:06.428Z,99696.41
2023-05-24T18:53:34.642Z,99695.63
2023-05-24T18:56:02.653Z,99695.66
2023-05-24T18:58:32.024Z,99704.13
2023-05-24T19:00:59.953Z,99704.13
2023-05-24T19:03:28.270Z,99719.31
2023-05-24T19:05:56.349Z,99718.50
2023-05-24T19:08:24.206Z,99730.31
2023-05-24T19:10:52.060Z,99732.00
2023-05-24T19:13:19.917Z,99728.66
2023-05-24T19:15:49.240Z,99732.00
2023-05-24T19:18:17.204Z,99732.91
2023-05-24T19:20:45.126Z,99734.53
2023-05-24T19:23:13.182Z,99728.69
2023-05-24T19:25:42.181Z,99735.41
2023-05-24T19:28:11.874Z,99732.03
2023-05-24T19:30:39.807Z,99734.56
2023-05-24T19:33:09.038Z,99738.78
2023-05-24T19:35:37.465Z,99747.19
2023-05-24T19:38:05.340Z,99747.22
2023-05-24T19:40:33.365Z,99738.75
2023-05-24T19:43:03.968Z,99743.84
2023-05-24T19:45:31.926Z,99750.56
2023-05-24T19:47:59.833Z,99752.25
2023-05-24T19:50:31.100Z,99748.91
2023-05-24T19:53:02.418Z,99750.59
2023-05-24T19:55:30.719Z,99753.97
2023-05-24T19:57:58.712Z,99743.81
2023-05-24T20:00:26.639Z,99748.84
2023-05-24T20:02:54.799Z,99753.88
2023-05-24T20:05:22.964Z,99750.47
2023-05-24T20:07:52.742Z,99752.13
2023-05-24T20:10:20.720Z,99753.78
2023-05-24T20:12:48.639Z,99751.22
2023-05-24T20:15:17.425Z,99741.94
2023-05-24T20:17:46.634Z,99749.53
2023-05-24T20:20:14.815Z,99750.38
2023-05-24T20:22:42.916Z,99751.22
2023-05-24T20:25:12.303Z,99756.28
2023-05-24T20:27:41.887Z,99753.75
2023-05-24T20:30:11.052Z,99756.31
2023-05-24T20:32:39.041Z,99767.25
2023-05-24T20:35:08.360Z,99766.41
2023-05-24T20:37:36.436Z,99768.13
2023-05-24T20:40:05.316Z,99768.94
2023-05-24T20:42:35.615Z,99760.53
2023-05-24T20:45:04.633Z,99763.91
2023-05-24T20:47:32.626Z,99775.75
2023-05-24T20:50:00.573Z,99764.00
2023-05-24T20:52:28.559Z,99772.41
2023-05-24T20:54:56.618Z,99766.50
2023-05-24T20:57:24.547Z,99768.19
2023-05-24T20:59:53.858Z,99772.41
2023-05-24T21:02:21.978Z,99768.22
2023-05-24T21:04:50.045Z,99769.06
2023-05-24T21:07:18.143Z,99768.22
2023-05-24T21:09:46.216Z,99790.19
2023-05-24T21:12:14.139Z,99780.06
2023-05-24T21:14:42.275Z,99777.53
2023-05-24T21:17:14.074Z,99785.97
2023-05-24T21:19:42.596Z,99787.66
2023-05-24T21:22:10.537Z,99790.22
2023-05-24T21:24:38.406Z,99796.13
2023-05-24T21:27:06.441Z,99793.59
2023-05-24T21:29:37.880Z,99801.19
2023-05-24T21:32:06.061Z,99791.06
2023-05-24T21:34:36.592Z,99801.19
2023-05-24T21:37:05.385Z,99801.19
2023-05-24T21:39:33.632Z,99811.28
2023-05-24T21:42:02.210Z,99817.19
2023-05-24T21:44:30.226Z,99818.88
2023-05-24T21:46:58.232Z,99820.59
2023-05-24T21:49:27.530Z,99825.66
2023-05-24T21:51:56.926Z,99822.28
2023-05-24T21:54:24.930Z,99826.47
2023-05-24T21:56:52.895Z,99824.75
2023-05-24T21:59:22.021Z,99823.06
2023-05-24T22:01:49.931Z,99817.16
2023-05-24T22:04:17.965Z,99821.38
2023-05-24T22:06:46.126Z,99827.28
2023-05-24T22:09:15.622Z,99833.16
2023-05-24T22:11:43.573Z,99823.91
2023-05-24T22:14:11.565Z,99834.84
2023-05-24T22:16:39.667Z,99830.66
2023-05-24T22:19:14.392Z,99829.81
2023-05-24T22:21:42.832Z,99824.72
2023-05-24T22:24:11.212Z,99836.50
2023-05-24T22:26:41.586Z,99839.88
2023-05-24T22:29:09.726Z,99837.34
2023-05-24T22:31:37.626Z,99828.06
2023-05-24T22:34:06.021Z,99828.06
2023-05-24T22:36:34.093Z,99833.09
2023-05-24T22:39:02.203Z,99831.41
2023-05-24T22:41:30.349Z,99828.00
2023-05-24T22:43:59.712Z,99825.47
2023-05-24T22:46:27.701Z,99831.34
2023-05-24T22:48:56.771Z,99836.38
2023-05-24T22:51:25.022Z,99835.47
2023-05-24T22:53:54.635Z,99821.06
2023-05-24T22:56:22.517Z,99836.28
2023-05-24T22:58:53.237Z,99826.13
2023-05-24T23:01:22.519Z,99830.34
2023-05-24T23:03:50.488Z,99830.38
2023-05-24T23:06:21.003Z,99837.13
2023-05-24T23:08:49.831Z,99827.75
2023-05-24T23:11:17.720Z,99830.31
2023-05-24T23:13:46.160Z,99834.50
2023-05-24T23:16:18.025Z,99826.91
2023-05-24T23:18:47.521Z,99835.31
2023-05-24T23:21:16.683Z,99839.56
2023-05-24T23:23:46.158Z,99834.50
2023-05-24T23:26:14.089Z,99838.72
2023-05-24T23:28:42.062Z,99837.06
2023-05-24T23:31:10.064Z,99841.28
2023-05-24T23:33:37.946Z,99838.75
2023-05-24T23:36:09.804Z,99834.44
2023-05-24T23:38:37.866Z,99839.53
2023-05-24T23:41:05.908Z,99839.56
2023-05-24T23:43:33.856Z,99841.28
2023-05-24T23:46:01.757Z,99842.09
2023-05-24T23:48:29.777Z,99843.78
2023-05-24T23:50:57.717Z,99842.06
2023-05-24T23:53:27.065Z,99847.06
2023-05-24T23:55:54.992Z,99850.41
2023-05-24T23:58:22.873Z,99849.56
